»·PEaware :: N361AS L88-KSBP

N361AS :: L88-KSBP

FLIGHT INFORMATION

Flight Status: Arrived
Operator: Privately registered:
United States
More flights under this callsign
Pilot: Michael N. (17635)
Aircraft: BEECH AIRCRAFT BONANZA
(BE36)
More flights by this aircraft type
Origin: L88 New Cuyama
United States
Destination: KSBP San Luis Co Regl
United States
More flights between these airports :: More routes between these airports
Route: DCT
File this flight plan on PilotEdge
Remarks: CAT2
Altitude:
(Current/Filed)
4,500ft
Speed:
(Current/Filed)
170kts
Departed: 01-Jan-18 09:04 PM
Arrived: 01-Jan-18 09:26 PM
Distance/Time
Traveled:
50nm/0:22
Distance/Time
To Go:
Arrived

Flight Plot

Page will automatically refresh every two minutes.


Map Options




Map Legend


Flown Route
Filed Route
Departure Airport
Arrival Airport
Navaid (VOR, NDB)
Fix

Horizontal Profiles

Position Reports

Time Latitude Longitude Heading Altitude Ground
Speed
01-Jan-18 20:57 34.939821 -119.693380 23 2205ft 0kts
01-Jan-18 20:58 34.939822 -119.693380 23 2205ft 0kts
01-Jan-18 20:59 34.939822 -119.693379 23 2205ft 0kts
01-Jan-18 21:00 34.939822 -119.693379 23 2205ft 0kts
01-Jan-18 21:01 34.939822 -119.693379 23 2205ft 0kts
01-Jan-18 21:02 34.939822 -119.693379 23 2205ft 0kts
01-Jan-18 21:03 34.939822 -119.693379 23 2205ft 0kts
01-Jan-18 21:04 34.939822 -119.693379 23 2205ft 0kts
01-Jan-18 21:05 34.939822 -119.693379 23 2205ft 0kts
01-Jan-18 21:06 34.939444 -119.693521 134 2205ft 10kts
01-Jan-18 21:07 34.937627 -119.688777 114 2205ft 18kts
01-Jan-18 21:08 34.935425 -119.682957 112 2205ft 11kts
01-Jan-18 21:09 34.935247 -119.682661 294 2205ft 0kts
01-Jan-18 21:10 34.940072 -119.695317 296 2272ft 90kts
01-Jan-18 21:11 34.951958 -119.723596 297 3040ft 95kts
01-Jan-18 21:12 34.965829 -119.753588 298 3886ft 103kts
01-Jan-18 21:13 34.979921 -119.785765 298 4494ft 117kts
01-Jan-18 21:14 34.998044 -119.827181 298 4506ft 155kts
01-Jan-18 21:15 35.018039 -119.873094 298 4490ft 152kts
01-Jan-18 21:16 35.038200 -119.919502 298 4478ft 159kts
01-Jan-18 21:17 35.057747 -119.964675 298 4491ft 146kts
01-Jan-18 21:18 35.076559 -120.008197 298 4492ft 144kts
01-Jan-18 21:19 35.095682 -120.052510 297 4489ft 149kts
01-Jan-18 21:20 35.113692 -120.097287 289 4498ft 145kts
01-Jan-18 21:21 35.125467 -120.145110 286 4490ft 149kts
01-Jan-18 21:22 35.136443 -120.192977 285 4493ft 145kts
01-Jan-18 21:23 35.147247 -120.240489 285 4492ft 144kts
01-Jan-18 21:24 35.157991 -120.287846 285 4492ft 145kts
01-Jan-18 21:25 35.168780 -120.335491 285 4490ft 145kts
01-Jan-18 21:26 35.179666 -120.383643 285 4324ft 155kts
01-Jan-18 21:27 35.191780 -120.436896 285 3834ft 165kts
01-Jan-18 21:28 35.203744 -120.490271 284 3333ft 161kts
01-Jan-18 21:29 35.209166 -120.545514 274 2404ft 161kts
01-Jan-18 21:30 35.214823 -120.596983 292 1396ft 123kts
01-Jan-18 21:31 35.229113 -120.626689 305 469ft 87kts
01-Jan-18 21:32 35.237179 -120.640195 3 214ft 5kts
01-Jan-18 21:33 35.237436 -120.640174 4 214ft 0kts
01-Jan-18 21:34 35.237458 -120.640172 4 214ft 1kts
01-Jan-18 21:35 35.238273 -120.639124 262 214ft 0kts
01-Jan-18 21:36 35.238273 -120.639124 262 214ft 0kts
01-Jan-18 21:37 35.238273 -120.639124 262 214ft 0kts
01-Jan-18 21:38 35.238273 -120.639124 262 214ft 0kts
01-Jan-18 21:39 35.238273 -120.639124 262 214ft 0kts
01-Jan-18 21:40 35.238273 -120.639124 262 214ft 0kts
01-Jan-18 21:41 35.238273 -120.639124 262 214ft 0kts
01-Jan-18 21:42 35.238273 -120.639124 262 214ft 0kts
01-Jan-18 21:43 35.238273 -120.639124 262 214ft 0kts
01-Jan-18 21:44 35.238273 -120.639124 262 214ft 0kts
01-Jan-18 21:45 35.237962 -120.639041 359 214ft 0kts
01-Jan-18 21:46 35.237962 -120.639041 0 214ft 0kts
01-Jan-18 21:47 35.237962 -120.639041 0 214ft 0kts

Navigation Log

Ident Type
1. L88 Airport
2. KSBP Airport